sensor_id;sensor_type;location;lat;lon;timestamp;P1;durP1;ratioP1;P2;durP2;ratioP2
26598;SDS011;14240;51.064;16.612;2022-09-09T00:04:03;11.40;;;6.82;;
26598;SDS011;14240;51.064;16.612;2022-09-09T00:06:58;13.18;;;6.32;;
26598;SDS011;14240;51.064;16.612;2022-09-09T00:12:31;8.98;;;6.95;;
26598;SDS011;14240;51.064;16.612;2022-09-09T00:15:13;13.23;;;7.50;;
26598;SDS011;14240;51.064;16.612;2022-09-09T00:23:06;9.10;;;7.53;;
26598;SDS011;14240;51.064;16.612;2022-09-09T00:26:22;11.55;;;7.05;;
26598;SDS011;14240;51.064;16.612;2022-09-09T00:28:39;11.70;;;7.38;;
26598;SDS011;14240;51.064;16.612;2022-09-09T00:31:15;13.75;;;8.32;;
26598;SDS011;14240;51.064;16.612;2022-09-09T00:33:45;10.68;;;7.00;;
26598;SDS011;14240;51.064;16.612;2022-09-09T00:36:13;13.57;;;8.00;;
26598;SDS011;14240;51.064;16.612;2022-09-09T00:38:43;10.70;;;7.75;;
26598;SDS011;14240;51.064;16.612;2022-09-09T00:41:21;8.95;;;7.18;;
26598;SDS011;14240;51.064;16.612;2022-09-09T00:51:52;11.43;;;7.47;;
26598;SDS011;14240;51.064;16.612;2022-09-09T00:54:28;9.40;;;7.72;;
26598;SDS011;14240;51.064;16.612;2022-09-09T00:59:48;10.52;;;8.80;;
26598;SDS011;14240;51.064;16.612;2022-09-09T01:05:02;8.32;;;6.72;;
26598;SDS011;14240;51.064;16.612;2022-09-09T01:07:36;9.80;;;7.05;;
26598;SDS011;14240;51.064;16.612;2022-09-09T01:10:04;8.98;;;7.03;;
26598;SDS011;14240;51.064;16.612;2022-09-09T01:15:14;9.75;;;7.82;;
26598;SDS011;14240;51.064;16.612;2022-09-09T01:17:53;7.78;;;6.90;;
26598;SDS011;14240;51.064;16.612;2022-09-09T01:20:36;11.38;;;7.22;;
26598;SDS011;14240;51.064;16.612;2022-09-09T01:28:54;12.15;;;7.22;;
26598;SDS011;14240;51.064;16.612;2022-09-09T01:31:21;9.27;;;7.00;;
26598;SDS011;14240;51.064;16.612;2022-09-09T01:33:56;10.82;;;8.05;;
26598;SDS011;14240;51.064;16.612;2022-09-09T01:39:23;11.40;;;7.82;;
26598;SDS011;14240;51.064;16.612;2022-09-09T01:41:49;9.52;;;7.22;;
26598;SDS011;14240;51.064;16.612;2022-09-09T01:44:15;11.05;;;7.00;;
26598;SDS011;14240;51.064;16.612;2022-09-09T01:46:43;13.07;;;7.40;;
26598;SDS011;14240;51.064;16.612;2022-09-09T01:49:08;10.90;;;7.05;;
26598;SDS011;14240;51.064;16.612;2022-09-09T01:51:35;12.13;;;6.70;;
26598;SDS011;14240;51.064;16.612;2022-09-09T01:54:03;8.60;;;7.25;;
26598;SDS011;14240;51.064;16.612;2022-09-09T01:56:40;10.80;;;6.75;;
26598;SDS011;14240;51.064;16.612;2022-09-09T02:04:36;10.18;;;6.25;;
26598;SDS011;14240;51.064;16.612;2022-09-09T02:07:03;16.55;;;6.68;;
26598;SDS011;14240;51.064;16.612;2022-09-09T02:09:39;11.35;;;6.43;;
26598;SDS011;14240;51.064;16.612;2022-09-09T02:12:09;10.02;;;6.53;;
26598;SDS011;14240;51.064;16.612;2022-09-09T02:14:40;10.25;;;6.65;;
26598;SDS011;14240;51.064;16.612;2022-09-09T02:17:11;11.13;;;7.45;;
26598;SDS011;14240;51.064;16.612;2022-09-09T02:19:48;7.65;;;6.85;;
26598;SDS011;14240;51.064;16.612;2022-09-09T02:22:18;10.43;;;6.82;;
26598;SDS011;14240;51.064;16.612;2022-09-09T02:24:46;13.27;;;7.50;;
26598;SDS011;14240;51.064;16.612;2022-09-09T02:27:12;9.18;;;7.38;;
26598;SDS011;14240;51.064;16.612;2022-09-09T02:29:41;8.60;;;6.93;;
26598;SDS011;14240;51.064;16.612;2022-09-09T02:32:11;9.50;;;7.03;;
26598;SDS011;14240;51.064;16.612;2022-09-09T02:34:40;8.32;;;6.45;;
26598;SDS011;14240;51.064;16.612;2022-09-09T02:37:12;12.25;;;8.15;;
26598;SDS011;14240;51.064;16.612;2022-09-09T02:39:40;10.13;;;6.82;;
26598;SDS011;14240;51.064;16.612;2022-09-09T02:42:06;7.07;;;6.10;;
26598;SDS011;14240;51.064;16.612;2022-09-09T02:44:33;9.20;;;7.22;;
26598;SDS011;14240;51.064;16.612;2022-09-09T02:53:05;11.68;;;7.30;;
26598;SDS011;14240;51.064;16.612;2022-09-09T02:55:17;9.20;;;6.60;;
26598;SDS011;14240;51.064;16.612;2022-09-09T02:57:46;9.95;;;7.00;;
26598;SDS011;14240;51.064;16.612;2022-09-09T03:00:13;9.87;;;7.60;;
26598;SDS011;14240;51.064;16.612;2022-09-09T03:02:39;9.68;;;7.00;;
26598;SDS011;14240;51.064;16.612;2022-09-09T03:05:06;10.02;;;6.57;;
26598;SDS011;14240;51.064;16.612;2022-09-09T03:07:31;10.43;;;6.85;;
26598;SDS011;14240;51.064;16.612;2022-09-09T03:09:57;8.18;;;6.03;;
26598;SDS011;14240;51.064;16.612;2022-09-09T03:12:23;9.82;;;6.65;;
26598;SDS011;14240;51.064;16.612;2022-09-09T03:14:49;7.57;;;6.28;;
26598;SDS011;14240;51.064;16.612;2022-09-09T03:17:14;6.80;;;5.85;;
26598;SDS011;14240;51.064;16.612;2022-09-09T03:19:40;9.07;;;6.28;;
26598;SDS011;14240;51.064;16.612;2022-09-09T03:22:06;11.10;;;7.15;;
26598;SDS011;14240;51.064;16.612;2022-09-09T03:24:33;10.23;;;5.80;;
26598;SDS011;14240;51.064;16.612;2022-09-09T03:26:58;6.70;;;5.35;;
26598;SDS011;14240;51.064;16.612;2022-09-09T03:29:24;7.90;;;5.85;;
26598;SDS011;14240;51.064;16.612;2022-09-09T03:31:50;7.28;;;6.05;;
26598;SDS011;14240;51.064;16.612;2022-09-09T03:34:16;7.45;;;6.25;;
26598;SDS011;14240;51.064;16.612;2022-09-09T03:36:41;7.05;;;6.28;;
26598;SDS011;14240;51.064;16.612;2022-09-09T03:39:07;6.03;;;5.40;;
26598;SDS011;14240;51.064;16.612;2022-09-09T03:41:32;5.95;;;5.10;;
26598;SDS011;14240;51.064;16.612;2022-09-09T03:43:59;9.00;;;5.53;;
26598;SDS011;14240;51.064;16.612;2022-09-09T03:46:24;8.02;;;6.20;;
26598;SDS011;14240;51.064;16.612;2022-09-09T03:48:51;8.00;;;5.43;;
26598;SDS011;14240;51.064;16.612;2022-09-09T03:51:17;7.43;;;5.78;;
26598;SDS011;14240;51.064;16.612;2022-09-09T03:53:43;8.80;;;5.38;;
26598;SDS011;14240;51.064;16.612;2022-09-09T03:56:09;10.23;;;7.57;;
26598;SDS011;14240;51.064;16.612;2022-09-09T03:58:36;7.25;;;5.47;;
26598;SDS011;14240;51.064;16.612;2022-09-09T04:01:03;6.70;;;5.80;;
26598;SDS011;14240;51.064;16.612;2022-09-09T04:03:38;8.57;;;5.93;;
26598;SDS011;14240;51.064;16.612;2022-09-09T04:06:04;8.63;;;5.72;;
26598;SDS011;14240;51.064;16.612;2022-09-09T04:08:32;7.43;;;6.72;;
26598;SDS011;14240;51.064;16.612;2022-09-09T04:13:26;6.65;;;5.50;;
26598;SDS011;14240;51.064;16.612;2022-09-09T04:15:54;13.20;;;5.50;;
26598;SDS011;14240;51.064;16.612;2022-09-09T04:18:21;7.55;;;5.15;;
26598;SDS011;14240;51.064;16.612;2022-09-09T04:20:48;8.75;;;5.70;;
26598;SDS011;14240;51.064;16.612;2022-09-09T04:25:48;5.03;;;3.85;;
26598;SDS011;14240;51.064;16.612;2022-09-09T04:28:15;9.35;;;4.72;;
26598;SDS011;14240;51.064;16.612;2022-09-09T04:30:42;6.65;;;4.85;;
26598;SDS011;14240;51.064;16.612;2022-09-09T04:33:09;7.18;;;5.28;;
26598;SDS011;14240;51.064;16.612;2022-09-09T04:35:35;8.45;;;5.60;;
26598;SDS011;14240;51.064;16.612;2022-09-09T04:38:01;6.13;;;5.40;;
26598;SDS011;14240;51.064;16.612;2022-09-09T04:40:30;7.22;;;5.55;;
26598;SDS011;14240;51.064;16.612;2022-09-09T04:42:59;5.72;;;4.78;;
26598;SDS011;14240;51.064;16.612;2022-09-09T04:45:26;10.20;;;4.95;;
26598;SDS011;14240;51.064;16.612;2022-09-09T04:47:52;5.88;;;4.38;;
26598;SDS011;14240;51.064;16.612;2022-09-09T04:50:18;8.93;;;5.07;;
26598;SDS011;14240;51.064;16.612;2022-09-09T04:52:45;6.63;;;5.03;;
26598;SDS011;14240;51.064;16.612;2022-09-09T04:55:10;6.95;;;5.43;;
26598;SDS011;14240;51.064;16.612;2022-09-09T04:57:37;9.07;;;6.77;;
26598;SDS011;14240;51.064;16.612;2022-09-09T05:00:03;8.55;;;5.80;;
26598;SDS011;14240;51.064;16.612;2022-09-09T05:02:29;6.65;;;5.53;;
26598;SDS011;14240;51.064;16.612;2022-09-09T05:04:55;8.48;;;5.60;;
26598;SDS011;14240;51.064;16.612;2022-09-09T05:07:21;10.40;;;6.75;;
26598;SDS011;14240;51.064;16.612;2022-09-09T05:09:47;5.90;;;4.38;;
26598;SDS011;14240;51.064;16.612;2022-09-09T05:12:14;7.35;;;5.15;;
26598;SDS011;14240;51.064;16.612;2022-09-09T05:14:41;6.25;;;4.68;;
26598;SDS011;14240;51.064;16.612;2022-09-09T05:17:07;6.72;;;5.00;;
26598;SDS011;14240;51.064;16.612;2022-09-09T05:19:33;6.80;;;5.22;;
26598;SDS011;14240;51.064;16.612;2022-09-09T05:21:59;7.75;;;5.30;;
26598;SDS011;14240;51.064;16.612;2022-09-09T05:24:26;10.87;;;7.03;;
26598;SDS011;14240;51.064;16.612;2022-09-09T05:26:51;6.07;;;4.63;;
26598;SDS011;14240;51.064;16.612;2022-09-09T05:29:17;20.08;;;10.07;;
26598;SDS011;14240;51.064;16.612;2022-09-09T05:31:44;12.30;;;8.20;;
26598;SDS011;14240;51.064;16.612;2022-09-09T05:36:37;8.23;;;4.68;;
26598;SDS011;14240;51.064;16.612;2022-09-09T05:39:03;5.97;;;4.28;;
26598;SDS011;14240;51.064;16.612;2022-09-09T05:41:29;8.68;;;4.53;;
26598;SDS011;14240;51.064;16.612;2022-09-09T05:43:56;14.67;;;8.23;;
26598;SDS011;14240;51.064;16.612;2022-09-09T05:46:24;28.35;;;16.85;;
26598;SDS011;14240;51.064;16.612;2022-09-09T05:48:50;10.00;;;6.68;;
26598;SDS011;14240;51.064;16.612;2022-09-09T05:51:17;12.07;;;6.03;;
26598;SDS011;14240;51.064;16.612;2022-09-09T05:53:46;7.20;;;6.00;;
26598;SDS011;14240;51.064;16.612;2022-09-09T05:56:14;10.65;;;5.75;;
26598;SDS011;14240;51.064;16.612;2022-09-09T05:58:41;59.08;;;33.97;;
26598;SDS011;14240;51.064;16.612;2022-09-09T06:03:42;68.03;;;30.40;;
26598;SDS011;14240;51.064;16.612;2022-09-09T06:06:09;11.97;;;6.63;;
26598;SDS011;14240;51.064;16.612;2022-09-09T06:08:37;7.80;;;5.88;;
26598;SDS011;14240;51.064;16.612;2022-09-09T06:11:05;7.75;;;5.63;;
26598;SDS011;14240;51.064;16.612;2022-09-09T06:13:35;8.60;;;5.90;;
26598;SDS011;14240;51.064;16.612;2022-09-09T06:16:12;11.52;;;6.10;;
26598;SDS011;14240;51.064;16.612;2022-09-09T06:18:43;8.13;;;6.25;;
26598;SDS011;14240;51.064;16.612;2022-09-09T06:21:15;7.88;;;5.30;;
26598;SDS011;14240;51.064;16.612;2022-09-09T06:23:45;8.05;;;4.88;;
26598;SDS011;14240;51.064;16.612;2022-09-09T06:28:46;6.65;;;4.13;;
26598;SDS011;14240;51.064;16.612;2022-09-09T06:31:14;6.97;;;4.45;;
26598;SDS011;14240;51.064;16.612;2022-09-09T06:33:47;6.88;;;4.32;;
26598;SDS011;14240;51.064;16.612;2022-09-09T06:36:21;7.60;;;4.00;;
26598;SDS011;14240;51.064;16.612;2022-09-09T06:38:49;8.65;;;4.30;;
26598;SDS011;14240;51.064;16.612;2022-09-09T06:41:16;7.05;;;4.65;;
26598;SDS011;14240;51.064;16.612;2022-09-09T06:43:43;6.53;;;4.97;;
26598;SDS011;14240;51.064;16.612;2022-09-09T06:46:13;9.68;;;5.20;;
26598;SDS011;14240;51.064;16.612;2022-09-09T06:48:40;6.20;;;4.82;;
26598;SDS011;14240;51.064;16.612;2022-09-09T06:53:36;8.73;;;5.32;;
26598;SDS011;14240;51.064;16.612;2022-09-09T06:56:17;8.68;;;4.85;;
26598;SDS011;14240;51.064;16.612;2022-09-09T06:58:43;8.88;;;5.88;;
26598;SDS011;14240;51.064;16.612;2022-09-09T07:01:11;5.93;;;4.78;;
26598;SDS011;14240;51.064;16.612;2022-09-09T07:03:41;8.32;;;5.63;;
26598;SDS011;14240;51.064;16.612;2022-09-09T07:06:08;7.93;;;4.70;;
26598;SDS011;14240;51.064;16.612;2022-09-09T07:08:42;8.98;;;5.72;;
26598;SDS011;14240;51.064;16.612;2022-09-09T07:11:08;8.45;;;4.97;;
26598;SDS011;14240;51.064;16.612;2022-09-09T07:13:34;8.15;;;5.07;;
26598;SDS011;14240;51.064;16.612;2022-09-09T07:16:04;11.90;;;7.35;;
26598;SDS011;14240;51.064;16.612;2022-09-09T07:18:34;12.35;;;6.45;;
26598;SDS011;14240;51.064;16.612;2022-09-09T07:21:00;10.25;;;5.05;;
26598;SDS011;14240;51.064;16.612;2022-09-09T07:23:27;10.33;;;5.23;;
26598;SDS011;14240;51.064;16.612;2022-09-09T07:25:53;9.18;;;4.65;;
26598;SDS011;14240;51.064;16.612;2022-09-09T07:28:19;17.25;;;9.82;;
26598;SDS011;14240;51.064;16.612;2022-09-09T07:30:55;25.80;;;17.55;;
26598;SDS011;14240;51.064;16.612;2022-09-09T07:33:22;8.32;;;6.05;;
26598;SDS011;14240;51.064;16.612;2022-09-09T07:35:49;7.05;;;4.95;;
26598;SDS011;14240;51.064;16.612;2022-09-09T07:38:15;7.53;;;4.38;;
26598;SDS011;14240;51.064;16.612;2022-09-09T07:40:41;6.68;;;4.28;;
26598;SDS011;14240;51.064;16.612;2022-09-09T07:43:06;5.25;;;3.85;;
26598;SDS011;14240;51.064;16.612;2022-09-09T07:45:33;6.85;;;4.28;;
26598;SDS011;14240;51.064;16.612;2022-09-09T07:48:00;8.70;;;3.90;;
26598;SDS011;14240;51.064;16.612;2022-09-09T07:50:26;8.23;;;4.22;;
26598;SDS011;14240;51.064;16.612;2022-09-09T07:52:52;9.15;;;4.82;;
26598;SDS011;14240;51.064;16.612;2022-09-09T07:55:22;10.23;;;4.07;;
26598;SDS011;14240;51.064;16.612;2022-09-09T07:57:50;15.02;;;4.22;;
26598;SDS011;14240;51.064;16.612;2022-09-09T08:00:16;4.97;;;2.63;;
26598;SDS011;14240;51.064;16.612;2022-09-09T08:02:43;6.15;;;3.55;;
26598;SDS011;14240;51.064;16.612;2022-09-09T08:05:08;5.30;;;3.25;;
26598;SDS011;14240;51.064;16.612;2022-09-09T08:07:34;3.33;;;2.63;;
26598;SDS011;14240;51.064;16.612;2022-09-09T08:10:00;5.55;;;3.78;;
26598;SDS011;14240;51.064;16.612;2022-09-09T08:12:26;6.60;;;3.03;;
26598;SDS011;14240;51.064;16.612;2022-09-09T08:14:52;5.03;;;2.95;;
26598;SDS011;14240;51.064;16.612;2022-09-09T08:17:19;2.47;;;2.05;;
26598;SDS011;14240;51.064;16.612;2022-09-09T08:19:45;3.22;;;2.20;;
26598;SDS011;14240;51.064;16.612;2022-09-09T08:22:10;4.47;;;2.35;;
26598;SDS011;14240;51.064;16.612;2022-09-09T08:24:36;3.15;;;2.25;;
26598;SDS011;14240;51.064;16.612;2022-09-09T08:27:02;4.10;;;2.20;;
26598;SDS011;14240;51.064;16.612;2022-09-09T08:29:28;4.20;;;2.72;;
26598;SDS011;14240;51.064;16.612;2022-09-09T08:31:54;5.38;;;2.60;;
26598;SDS011;14240;51.064;16.612;2022-09-09T08:34:22;9.57;;;3.13;;
26598;SDS011;14240;51.064;16.612;2022-09-09T08:36:49;16.85;;;8.80;;
26598;SDS011;14240;51.064;16.612;2022-09-09T08:39:17;2.95;;;2.58;;
26598;SDS011;14240;51.064;16.612;2022-09-09T08:44:24;5.88;;;2.75;;
26598;SDS011;14240;51.064;16.612;2022-09-09T08:57:54;5.25;;;2.40;;
26598;SDS011;14240;51.064;16.612;2022-09-09T09:00:22;5.80;;;1.92;;
26598;SDS011;14240;51.064;16.612;2022-09-09T09:08:36;3.42;;;2.00;;
26598;SDS011;14240;51.064;16.612;2022-09-09T09:11:24;2.60;;;1.70;;
26598;SDS011;14240;51.064;16.612;2022-09-09T09:19:03;6.43;;;1.95;;
26598;SDS011;14240;51.064;16.612;2022-09-09T09:21:34;3.50;;;1.80;;
26598;SDS011;14240;51.064;16.612;2022-09-09T09:24:02;8.85;;;4.82;;
26598;SDS011;14240;51.064;16.612;2022-09-09T09:26:37;5.32;;;2.08;;
26598;SDS011;14240;51.064;16.612;2022-09-09T09:29:10;4.07;;;1.63;;
26598;SDS011;14240;51.064;16.612;2022-09-09T09:31:41;2.00;;;1.50;;
26598;SDS011;14240;51.064;16.612;2022-09-09T09:34:16;6.35;;;2.38;;
26598;SDS011;14240;51.064;16.612;2022-09-09T09:36:43;14.27;;;5.38;;
26598;SDS011;14240;51.064;16.612;2022-09-09T09:39:22;3.92;;;2.33;;
26598;SDS011;14240;51.064;16.612;2022-09-09T09:41:49;5.35;;;2.50;;
26598;SDS011;14240;51.064;16.612;2022-09-09T09:44:29;4.20;;;1.80;;
26598;SDS011;14240;51.064;16.612;2022-09-09T09:49:31;3.67;;;1.90;;
26598;SDS011;14240;51.064;16.612;2022-09-09T09:52:06;2.67;;;1.50;;
26598;SDS011;14240;51.064;16.612;2022-09-09T09:54:43;4.78;;;2.10;;
26598;SDS011;14240;51.064;16.612;2022-09-09T09:57:12;7.88;;;1.70;;
26598;SDS011;14240;51.064;16.612;2022-09-09T09:59:39;3.65;;;1.50;;
26598;SDS011;14240;51.064;16.612;2022-09-09T10:02:19;3.85;;;2.10;;
26598;SDS011;14240;51.064;16.612;2022-09-09T10:05:00;4.28;;;1.48;;
26598;SDS011;14240;51.064;16.612;2022-09-09T10:07:46;4.43;;;1.77;;
26598;SDS011;14240;51.064;16.612;2022-09-09T10:10:26;2.50;;;1.50;;
26598;SDS011;14240;51.064;16.612;2022-09-09T10:13:18;2.50;;;1.70;;
26598;SDS011;14240;51.064;16.612;2022-09-09T10:18:41;5.35;;;2.28;;
26598;SDS011;14240;51.064;16.612;2022-09-09T10:27:11;7.30;;;5.22;;
26598;SDS011;14240;51.064;16.612;2022-09-09T10:42:43;3.38;;;1.92;;
26598;SDS011;14240;51.064;16.612;2022-09-09T10:45:18;3.05;;;1.70;;
26598;SDS011;14240;51.064;16.612;2022-09-09T10:53:22;2.42;;;1.75;;
26598;SDS011;14240;51.064;16.612;2022-09-09T10:56:06;5.95;;;1.67;;
26598;SDS011;14240;51.064;16.612;2022-09-09T11:01:12;3.08;;;1.75;;
26598;SDS011;14240;51.064;16.612;2022-09-09T11:03:57;4.65;;;2.15;;
26598;SDS011;14240;51.064;16.612;2022-09-09T11:06:37;2.75;;;2.08;;
26598;SDS011;14240;51.064;16.612;2022-09-09T11:09:08;3.70;;;1.98;;
26598;SDS011;14240;51.064;16.612;2022-09-09T11:11:43;4.38;;;2.10;;
26598;SDS011;14240;51.064;16.612;2022-09-09T11:14:14;5.30;;;1.92;;
26598;SDS011;14240;51.064;16.612;2022-09-09T11:16:53;2.35;;;1.90;;
26598;SDS011;14240;51.064;16.612;2022-09-09T11:19:36;5.38;;;2.30;;
26598;SDS011;14240;51.064;16.612;2022-09-09T11:22:14;4.35;;;2.30;;
26598;SDS011;14240;51.064;16.612;2022-09-09T11:28:05;3.50;;;2.28;;
26598;SDS011;14240;51.064;16.612;2022-09-09T11:38:28;5.75;;;3.15;;
26598;SDS011;14240;51.064;16.612;2022-09-09T11:41:05;10.45;;;3.72;;
26598;SDS011;14240;51.064;16.612;2022-09-09T11:43:45;7.32;;;3.13;;
26598;SDS011;14240;51.064;16.612;2022-09-09T11:46:11;5.03;;;2.03;;
26598;SDS011;14240;51.064;16.612;2022-09-09T11:48:44;5.53;;;2.47;;
26598;SDS011;14240;51.064;16.612;2022-09-09T11:53:53;2.17;;;1.70;;
26598;SDS011;14240;51.064;16.612;2022-09-09T11:57:02;5.07;;;1.63;;
26598;SDS011;14240;51.064;16.612;2022-09-09T11:59:22;3.25;;;1.98;;
26598;SDS011;14240;51.064;16.612;2022-09-09T12:01:54;2.60;;;1.60;;
26598;SDS011;14240;51.064;16.612;2022-09-09T12:06:56;4.32;;;2.30;;
26598;SDS011;14240;51.064;16.612;2022-09-09T12:15:00;6.03;;;3.65;;
26598;SDS011;14240;51.064;16.612;2022-09-09T12:17:31;4.30;;;1.55;;
26598;SDS011;14240;51.064;16.612;2022-09-09T12:31:15;5.10;;;1.50;;
26598;SDS011;14240;51.064;16.612;2022-09-09T12:34:09;1.38;;;1.27;;
26598;SDS011;14240;51.064;16.612;2022-09-09T12:36:38;2.85;;;2.22;;
26598;SDS011;14240;51.064;16.612;2022-09-09T12:39:16;5.03;;;1.83;;
26598;SDS011;14240;51.064;16.612;2022-09-09T12:41:52;5.70;;;1.83;;
26598;SDS011;14240;51.064;16.612;2022-09-09T12:44:22;4.88;;;1.58;;
26598;SDS011;14240;51.064;16.612;2022-09-09T12:46:49;2.90;;;1.58;;
26598;SDS011;14240;51.064;16.612;2022-09-09T12:49:36;4.78;;;1.63;;
26598;SDS011;14240;51.064;16.612;2022-09-09T12:54:34;2.92;;;1.67;;
26598;SDS011;14240;51.064;16.612;2022-09-09T12:57:01;2.15;;;1.85;;
26598;SDS011;14240;51.064;16.612;2022-09-09T12:59:36;3.67;;;1.60;;
26598;SDS011;14240;51.064;16.612;2022-09-09T13:02:11;2.78;;;1.52;;
26598;SDS011;14240;51.064;16.612;2022-09-09T13:04:43;2.88;;;1.60;;
26598;SDS011;14240;51.064;16.612;2022-09-09T13:07:10;3.70;;;1.90;;
26598;SDS011;14240;51.064;16.612;2022-09-09T13:09:36;3.90;;;1.80;;
26598;SDS011;14240;51.064;16.612;2022-09-09T13:12:02;5.20;;;1.60;;
26598;SDS011;14240;51.064;16.612;2022-09-09T13:14:33;3.70;;;1.60;;
26598;SDS011;14240;51.064;16.612;2022-09-09T13:17:03;4.40;;;1.85;;
26598;SDS011;14240;51.064;16.612;2022-09-09T13:19:32;2.65;;;1.52;;
26598;SDS011;14240;51.064;16.612;2022-09-09T13:22:14;2.53;;;1.70;;
26598;SDS011;14240;51.064;16.612;2022-09-09T13:24:46;4.15;;;1.90;;
26598;SDS011;14240;51.064;16.612;2022-09-09T13:27:28;3.47;;;2.20;;
26598;SDS011;14240;51.064;16.612;2022-09-09T13:29:59;3.03;;;2.15;;
26598;SDS011;14240;51.064;16.612;2022-09-09T13:32:26;2.38;;;1.98;;
26598;SDS011;14240;51.064;16.612;2022-09-09T13:34:56;7.05;;;2.40;;
26598;SDS011;14240;51.064;16.612;2022-09-09T13:37:30;2.47;;;2.20;;
26598;SDS011;14240;51.064;16.612;2022-09-09T13:40:01;4.32;;;1.90;;
26598;SDS011;14240;51.064;16.612;2022-09-09T13:42:31;2.50;;;1.95;;
26598;SDS011;14240;51.064;16.612;2022-09-09T13:45:00;2.78;;;2.13;;
26598;SDS011;14240;51.064;16.612;2022-09-09T13:47:31;3.17;;;2.22;;
26598;SDS011;14240;51.064;16.612;2022-09-09T13:50:09;4.80;;;2.30;;
26598;SDS011;14240;51.064;16.612;2022-09-09T13:52:43;2.83;;;2.45;;
26598;SDS011;14240;51.064;16.612;2022-09-09T13:55:09;2.65;;;2.38;;
26598;SDS011;14240;51.064;16.612;2022-09-09T13:57:35;5.50;;;2.38;;
26598;SDS011;14240;51.064;16.612;2022-09-09T14:00:01;5.15;;;2.47;;
26598;SDS011;14240;51.064;16.612;2022-09-09T14:02:27;3.38;;;2.40;;
26598;SDS011;14240;51.064;16.612;2022-09-09T14:04:52;2.63;;;2.08;;
26598;SDS011;14240;51.064;16.612;2022-09-09T14:07:20;3.75;;;2.45;;
26598;SDS011;14240;51.064;16.612;2022-09-09T14:09:46;3.45;;;2.38;;
26598;SDS011;14240;51.064;16.612;2022-09-09T14:12:15;2.78;;;2.20;;
26598;SDS011;14240;51.064;16.612;2022-09-09T14:14:41;5.95;;;2.40;;
26598;SDS011;14240;51.064;16.612;2022-09-09T14:17:07;2.75;;;2.50;;
26598;SDS011;14240;51.064;16.612;2022-09-09T14:19:34;3.28;;;2.30;;
26598;SDS011;14240;51.064;16.612;2022-09-09T14:21:59;3.63;;;2.35;;
26598;SDS011;14240;51.064;16.612;2022-09-09T14:24:26;4.38;;;2.47;;
26598;SDS011;14240;51.064;16.612;2022-09-09T14:26:52;2.53;;;2.28;;
26598;SDS011;14240;51.064;16.612;2022-09-09T14:29:18;4.85;;;2.63;;
26598;SDS011;14240;51.064;16.612;2022-09-09T14:31:44;10.15;;;8.25;;
26598;SDS011;14240;51.064;16.612;2022-09-09T14:34:10;6.25;;;3.03;;
26598;SDS011;14240;51.064;16.612;2022-09-09T14:36:36;6.40;;;4.93;;
26598;SDS011;14240;51.064;16.612;2022-09-09T14:39:02;5.22;;;3.22;;
26598;SDS011;14240;51.064;16.612;2022-09-09T14:41:29;4.65;;;2.83;;
26598;SDS011;14240;51.064;16.612;2022-09-09T14:43:55;7.60;;;4.28;;
26598;SDS011;14240;51.064;16.612;2022-09-09T14:46:21;3.00;;;2.22;;
26598;SDS011;14240;51.064;16.612;2022-09-09T14:48:47;5.68;;;2.90;;
26598;SDS011;14240;51.064;16.612;2022-09-09T14:53:40;3.15;;;2.50;;
26598;SDS011;14240;51.064;16.612;2022-09-09T14:56:07;10.13;;;3.28;;
26598;SDS011;14240;51.064;16.612;2022-09-09T14:58:35;7.65;;;3.17;;
26598;SDS011;14240;51.064;16.612;2022-09-09T15:03:32;8.70;;;4.20;;
26598;SDS011;14240;51.064;16.612;2022-09-09T15:06:04;17.83;;;10.95;;
26598;SDS011;14240;51.064;16.612;2022-09-09T15:08:35;10.10;;;6.60;;
26598;SDS011;14240;51.064;16.612;2022-09-09T15:11:02;5.57;;;3.10;;
26598;SDS011;14240;51.064;16.612;2022-09-09T15:15:54;17.58;;;11.15;;
26598;SDS011;14240;51.064;16.612;2022-09-09T15:18:20;18.55;;;10.70;;
26598;SDS011;14240;51.064;16.612;2022-09-09T15:20:46;7.43;;;4.47;;
26598;SDS011;14240;51.064;16.612;2022-09-09T15:23:12;6.30;;;3.67;;
26598;SDS011;14240;51.064;16.612;2022-09-09T15:25:49;11.13;;;3.83;;
26598;SDS011;14240;51.064;16.612;2022-09-09T15:28:17;7.35;;;2.83;;
26598;SDS011;14240;51.064;16.612;2022-09-09T15:30:42;6.28;;;2.75;;
26598;SDS011;14240;51.064;16.612;2022-09-09T15:33:10;5.05;;;2.90;;
26598;SDS011;14240;51.064;16.612;2022-09-09T15:35:35;8.15;;;2.28;;
26598;SDS011;14240;51.064;16.612;2022-09-09T15:38:02;7.10;;;3.08;;
26598;SDS011;14240;51.064;16.612;2022-09-09T15:40:29;3.95;;;2.88;;
26598;SDS011;14240;51.064;16.612;2022-09-09T15:42:57;4.65;;;3.03;;
26598;SDS011;14240;51.064;16.612;2022-09-09T15:45:23;5.72;;;2.78;;
26598;SDS011;14240;51.064;16.612;2022-09-09T15:47:49;20.50;;;12.18;;
26598;SDS011;14240;51.064;16.612;2022-09-09T15:50:15;7.15;;;5.10;;
26598;SDS011;14240;51.064;16.612;2022-09-09T15:52:41;5.88;;;2.95;;
26598;SDS011;14240;51.064;16.612;2022-09-09T15:55:07;5.00;;;3.10;;
26598;SDS011;14240;51.064;16.612;2022-09-09T15:57:35;11.73;;;3.50;;
26598;SDS011;14240;51.064;16.612;2022-09-09T16:00:02;5.15;;;2.80;;
26598;SDS011;14240;51.064;16.612;2022-09-09T16:02:29;5.15;;;2.65;;
26598;SDS011;14240;51.064;16.612;2022-09-09T16:04:55;6.65;;;2.67;;
26598;SDS011;14240;51.064;16.612;2022-09-09T16:07:22;4.18;;;3.30;;
26598;SDS011;14240;51.064;16.612;2022-09-09T16:09:48;5.82;;;3.10;;
26598;SDS011;14240;51.064;16.612;2022-09-09T16:12:16;6.70;;;3.38;;
26598;SDS011;14240;51.064;16.612;2022-09-09T16:14:42;8.75;;;3.40;;
26598;SDS011;14240;51.064;16.612;2022-09-09T16:17:07;6.10;;;2.88;;
26598;SDS011;14240;51.064;16.612;2022-09-09T16:19:33;8.77;;;4.35;;
26598;SDS011;14240;51.064;16.612;2022-09-09T16:21:59;6.57;;;3.60;;
26598;SDS011;14240;51.064;16.612;2022-09-09T16:24:25;9.93;;;3.95;;
26598;SDS011;14240;51.064;16.612;2022-09-09T16:26:53;4.90;;;3.28;;
26598;SDS011;14240;51.064;16.612;2022-09-09T16:29:24;4.32;;;3.33;;
26598;SDS011;14240;51.064;16.612;2022-09-09T16:31:52;6.15;;;3.35;;
26598;SDS011;14240;51.064;16.612;2022-09-09T16:34:19;4.13;;;3.07;;
26598;SDS011;14240;51.064;16.612;2022-09-09T16:36:46;5.77;;;3.30;;
26598;SDS011;14240;51.064;16.612;2022-09-09T16:39:17;6.57;;;3.85;;
26598;SDS011;14240;51.064;16.612;2022-09-09T16:41:44;8.18;;;5.05;;
26598;SDS011;14240;51.064;16.612;2022-09-09T16:44:13;4.82;;;3.88;;
26598;SDS011;14240;51.064;16.612;2022-09-09T16:46:42;9.18;;;5.03;;
26598;SDS011;14240;51.064;16.612;2022-09-09T16:49:10;8.35;;;4.35;;
26598;SDS011;14240;51.064;16.612;2022-09-09T16:51:41;13.25;;;4.85;;
26598;SDS011;14240;51.064;16.612;2022-09-09T16:54:08;11.07;;;4.88;;
26598;SDS011;14240;51.064;16.612;2022-09-09T16:56:35;7.00;;;4.22;;
26598;SDS011;14240;51.064;16.612;2022-09-09T16:59:04;10.85;;;4.57;;
26598;SDS011;14240;51.064;16.612;2022-09-09T17:01:33;6.93;;;4.95;;
26598;SDS011;14240;51.064;16.612;2022-09-09T17:04:03;6.68;;;4.13;;
26598;SDS011;14240;51.064;16.612;2022-09-09T17:06:31;7.15;;;4.40;;
26598;SDS011;14240;51.064;16.612;2022-09-09T17:09:02;8.15;;;4.82;;
26598;SDS011;14240;51.064;16.612;2022-09-09T17:11:30;9.45;;;4.68;;
26598;SDS011;14240;51.064;16.612;2022-09-09T17:13:56;7.40;;;4.90;;
26598;SDS011;14240;51.064;16.612;2022-09-09T17:16:24;7.10;;;4.95;;
26598;SDS011;14240;51.064;16.612;2022-09-09T17:18:52;26.40;;;16.27;;
26598;SDS011;14240;51.064;16.612;2022-09-09T17:21:20;11.47;;;6.67;;
26598;SDS011;14240;51.064;16.612;2022-09-09T17:23:48;16.48;;;10.63;;
26598;SDS011;14240;51.064;16.612;2022-09-09T17:26:16;8.45;;;4.53;;